sensor_id;sensor_type;location;lat;lon;timestamp;pressure;altitude;pressure_sealevel;temperature;humidity
19447;BME280;9862;49.462;11.054;2023-06-26T00:01:25;98005.03;;;24.76;100.00
19447;BME280;9862;49.462;11.054;2023-06-26T00:03:55;98004.53;;;24.74;100.00
19447;BME280;9862;49.462;11.054;2023-06-26T00:06:21;97999.19;;;24.69;100.00
19447;BME280;9862;49.462;11.054;2023-06-26T00:08:50;98001.19;;;24.63;100.00
19447;BME280;9862;49.462;11.054;2023-06-26T00:11:16;98009.88;;;24.65;100.00
19447;BME280;9862;49.462;11.054;2023-06-26T00:13:43;97999.38;;;24.59;100.00
19447;BME280;9862;49.462;11.054;2023-06-26T00:16:11;98004.00;;;24.58;100.00
19447;BME280;9862;49.462;11.054;2023-06-26T00:18:37;98002.41;;;24.57;100.00
19447;BME280;9862;49.462;11.054;2023-06-26T00:21:04;98000.78;;;24.56;100.00
19447;BME280;9862;49.462;11.054;2023-06-26T00:23:30;98005.41;;;24.55;100.00
19447;BME280;9862;49.462;11.054;2023-06-26T00:26:01;97994.53;;;24.55;100.00
19447;BME280;9862;49.462;11.054;2023-06-26T00:28:28;98000.28;;;24.54;100.00
19447;BME280;9862;49.462;11.054;2023-06-26T00:30:55;97991.88;;;24.50;100.00
19447;BME280;9862;49.462;11.054;2023-06-26T00:33:23;97995.72;;;24.49;100.00
19447;BME280;9862;49.462;11.054;2023-06-26T00:35:49;97994.72;;;24.45;100.00
19447;BME280;9862;49.462;11.054;2023-06-26T00:38:16;97995.34;;;24.42;100.00
19447;BME280;9862;49.462;11.054;2023-06-26T00:40:43;98009.22;;;24.41;100.00
19447;BME280;9862;49.462;11.054;2023-06-26T00:43:09;98001.56;;;24.43;100.00
19447;BME280;9862;49.462;11.054;2023-06-26T00:45:36;97993.69;;;24.41;100.00
19447;BME280;9862;49.462;11.054;2023-06-26T00:48:03;97998.13;;;24.37;100.00
19447;BME280;9862;49.462;11.054;2023-06-26T00:50:31;98004.75;;;24.31;100.00
19447;BME280;9862;49.462;11.054;2023-06-26T00:52:58;98001.28;;;24.25;100.00
19447;BME280;9862;49.462;11.054;2023-06-26T00:55:27;97998.28;;;24.27;100.00
19447;BME280;9862;49.462;11.054;2023-06-26T00:57:54;97993.63;;;24.27;100.00
19447;BME280;9862;49.462;11.054;2023-06-26T01:00:21;98002.91;;;24.26;100.00
19447;BME280;9862;49.462;11.054;2023-06-26T01:02:47;98001.28;;;24.25;100.00
19447;BME280;9862;49.462;11.054;2023-06-26T01:05:14;97993.22;;;24.20;100.00
19447;BME280;9862;49.462;11.054;2023-06-26T01:07:48;97999.25;;;24.17;100.00
19447;BME280;9862;49.462;11.054;2023-06-26T01:10:15;97999.84;;;24.14;100.00
19447;BME280;9862;49.462;11.054;2023-06-26T01:12:42;97995.78;;;24.12;100.00
19447;BME280;9862;49.462;11.054;2023-06-26T01:15:09;98002.03;;;24.12;100.00
19447;BME280;9862;49.462;11.054;2023-06-26T01:17:37;98006.69;;;24.12;100.00
19447;BME280;9862;49.462;11.054;2023-06-26T01:20:05;97998.53;;;24.12;100.00
19447;BME280;9862;49.462;11.054;2023-06-26T01:22:37;98002.66;;;24.09;100.00
19447;BME280;9862;49.462;11.054;2023-06-26T01:25:15;97995.41;;;24.05;100.00
19447;BME280;9862;49.462;11.054;2023-06-26T01:27:46;98003.84;;;24.03;100.00
19447;BME280;9862;49.462;11.054;2023-06-26T01:30:15;98005.91;;;23.92;100.00
19447;BME280;9862;49.462;11.054;2023-06-26T01:32:43;98001.56;;;23.91;100.00
19447;BME280;9862;49.462;11.054;2023-06-26T01:35:11;97998.34;;;23.89;100.00
19447;BME280;9862;49.462;11.054;2023-06-26T01:37:38;97998.66;;;23.88;100.00
19447;BME280;9862;49.462;11.054;2023-06-26T01:40:05;97990.56;;;23.83;100.00
19447;BME280;9862;49.462;11.054;2023-06-26T01:42:32;97999.09;;;23.76;100.00
19447;BME280;9862;49.462;11.054;2023-06-26T01:45:02;97998.59;;;23.74;100.00
19447;BME280;9862;49.462;11.054;2023-06-26T01:47:31;97987.28;;;23.67;100.00
19447;BME280;9862;49.462;11.054;2023-06-26T01:50:06;98000.41;;;23.60;100.00
19447;BME280;9862;49.462;11.054;2023-06-26T01:52:39;97987.03;;;23.63;100.00
19447;BME280;9862;49.462;11.054;2023-06-26T01:55:12;97984.13;;;23.60;100.00
19447;BME280;9862;49.462;11.054;2023-06-26T01:57:41;97986.84;;;23.60;100.00
19447;BME280;9862;49.462;11.054;2023-06-26T02:00:11;97984.63;;;23.62;100.00
19447;BME280;9862;49.462;11.054;2023-06-26T02:02:40;97987.28;;;23.67;100.00
19447;BME280;9862;49.462;11.054;2023-06-26T02:05:08;97981.59;;;23.63;100.00
19447;BME280;9862;49.462;11.054;2023-06-26T02:07:35;97969.94;;;23.63;100.00
19447;BME280;9862;49.462;11.054;2023-06-26T02:10:01;97985.72;;;23.61;100.00
19447;BME280;9862;49.462;11.054;2023-06-26T02:12:28;97981.91;;;23.62;100.00
19447;BME280;9862;49.462;11.054;2023-06-26T02:14:56;97981.91;;;23.62;100.00
19447;BME280;9862;49.462;11.054;2023-06-26T02:17:24;97982.22;;;23.60;100.00
19447;BME280;9862;49.462;11.054;2023-06-26T02:19:54;97976.53;;;23.57;100.00
19447;BME280;9862;49.462;11.054;2023-06-26T02:22:23;97979.25;;;23.57;100.00
19447;BME280;9862;49.462;11.054;2023-06-26T02:24:51;97971.63;;;23.59;100.00
19447;BME280;9862;49.462;11.054;2023-06-26T02:27:17;97975.19;;;23.54;100.00
19447;BME280;9862;49.462;11.054;2023-06-26T02:29:44;97993.50;;;23.49;100.00
19447;BME280;9862;49.462;11.054;2023-06-26T02:32:16;97993.28;;;23.45;100.00
19447;BME280;9862;49.462;11.054;2023-06-26T02:34:44;97993.84;;;23.42;100.00
19447;BME280;9862;49.462;11.054;2023-06-26T02:37:11;97995.25;;;23.39;100.00
19447;BME280;9862;49.462;11.054;2023-06-26T02:39:38;97992.22;;;23.41;100.00
19447;BME280;9862;49.462;11.054;2023-06-26T02:42:05;97987.91;;;23.40;100.00
19447;BME280;9862;49.462;11.054;2023-06-26T02:44:31;97987.38;;;23.38;100.00
19447;BME280;9862;49.462;11.054;2023-06-26T02:46:58;97992.59;;;23.34;100.00
19447;BME280;9862;49.462;11.054;2023-06-26T02:49:24;97988.34;;;23.28;100.00
19447;BME280;9862;49.462;11.054;2023-06-26T02:51:52;97991.09;;;23.23;100.00
19447;BME280;9862;49.462;11.054;2023-06-26T02:54:19;97990.66;;;23.16;100.00
19447;BME280;9862;49.462;11.054;2023-06-26T02:56:46;97986.31;;;23.15;100.00
19447;BME280;9862;49.462;11.054;2023-06-26T02:59:13;97983.59;;;23.15;100.00
19447;BME280;9862;49.462;11.054;2023-06-26T03:01:40;97981.44;;;23.17;100.00
19447;BME280;9862;49.462;11.054;2023-06-26T03:04:06;97977.91;;;23.17;100.00
19447;BME280;9862;49.462;11.054;2023-06-26T03:06:33;97982.81;;;23.14;100.00
19447;BME280;9862;49.462;11.054;2023-06-26T03:09:01;97976.81;;;23.18;100.00
19447;BME280;9862;49.462;11.054;2023-06-26T03:11:28;97974.34;;;23.16;100.00
19447;BME280;9862;49.462;11.054;2023-06-26T03:13:55;97975.75;;;23.13;100.00
19447;BME280;9862;49.462;11.054;2023-06-26T03:16:21;97982.59;;;23.11;100.00
19447;BME280;9862;49.462;11.054;2023-06-26T03:18:48;97978.00;;;23.06;100.00
19447;BME280;9862;49.462;11.054;2023-06-26T03:21:14;97982.63;;;23.06;100.00
19447;BME280;9862;49.462;11.054;2023-06-26T03:23:41;97987.00;;;23.07;100.00
19447;BME280;9862;49.462;11.054;2023-06-26T03:26:09;97980.97;;;23.10;100.00
19447;BME280;9862;49.462;11.054;2023-06-26T03:28:36;97977.16;;;23.11;100.00
19447;BME280;9862;49.462;11.054;2023-06-26T03:31:02;97984.53;;;23.05;100.00
19447;BME280;9862;49.462;11.054;2023-06-26T03:33:29;97982.13;;;23.04;100.00
19447;BME280;9862;49.462;11.054;2023-06-26T03:35:55;97976.94;;;23.07;100.00
19447;BME280;9862;49.462;11.054;2023-06-26T03:38:22;97976.13;;;23.07;100.00
19447;BME280;9862;49.462;11.054;2023-06-26T03:40:49;97982.38;;;23.07;100.00
19447;BME280;9862;49.462;11.054;2023-06-26T03:43:17;97982.63;;;23.06;100.00
19447;BME280;9862;49.462;11.054;2023-06-26T03:45:44;97975.03;;;23.08;100.00
19447;BME280;9862;49.462;11.054;2023-06-26T03:48:11;97978.31;;;23.05;100.00
19447;BME280;9862;49.462;11.054;2023-06-26T03:50:38;97983.72;;;23.05;100.00
19447;BME280;9862;49.462;11.054;2023-06-26T03:53:04;97980.97;;;23.10;100.00
19447;BME280;9862;49.462;11.054;2023-06-26T03:55:31;97973.63;;;23.10;100.00
19447;BME280;9862;49.462;11.054;2023-06-26T03:57:57;97978.78;;;23.12;100.00
19447;BME280;9862;49.462;11.054;2023-06-26T04:00:25;97976.13;;;23.07;100.00
19447;BME280;9862;49.462;11.054;2023-06-26T04:02:52;97976.13;;;23.07;100.00
19447;BME280;9862;49.462;11.054;2023-06-26T04:05:18;97982.63;;;23.06;100.00
19447;BME280;9862;49.462;11.054;2023-06-26T04:07:45;97982.38;;;23.07;100.00
19447;BME280;9862;49.462;11.054;2023-06-26T04:10:15;97973.94;;;23.09;100.00
19447;BME280;9862;49.462;11.054;2023-06-26T04:12:42;97969.31;;;23.09;100.00
19447;BME280;9862;49.462;11.054;2023-06-26T04:15:09;97968.50;;;23.09;100.00
19447;BME280;9862;49.462;11.054;2023-06-26T04:17:37;97974.16;;;23.12;100.00
19447;BME280;9862;49.462;11.054;2023-06-26T04:20:05;97976.06;;;23.12;100.00
19447;BME280;9862;49.462;11.054;2023-06-26T04:22:32;97971.22;;;23.09;100.00
19447;BME280;9862;49.462;11.054;2023-06-26T04:25:01;97973.94;;;23.09;100.00
19447;BME280;9862;49.462;11.054;2023-06-26T04:27:28;97971.63;;;23.16;100.00
19447;BME280;9862;49.462;11.054;2023-06-26T04:29:55;97975.53;;;23.10;100.00
19447;BME280;9862;49.462;11.054;2023-06-26T04:32:22;97979.88;;;23.11;100.00
19447;BME280;9862;49.462;11.054;2023-06-26T04:34:50;97978.78;;;23.12;100.00
19447;BME280;9862;49.462;11.054;2023-06-26T04:37:16;97976.56;;;23.14;100.00
19447;BME280;9862;49.462;11.054;2023-06-26T04:39:43;97980.63;;;23.17;100.00
19447;BME280;9862;49.462;11.054;2023-06-26T04:42:10;97987.66;;;23.18;100.00
19447;BME280;9862;49.462;11.054;2023-06-26T04:44:37;97979.22;;;23.19;100.00
19447;BME280;9862;49.462;11.054;2023-06-26T04:47:06;97981.84;;;23.24;100.00
19447;BME280;9862;49.462;11.054;2023-06-26T04:49:33;97971.00;;;23.24;100.00
19447;BME280;9862;49.462;11.054;2023-06-26T04:52:01;97972.59;;;23.25;100.00
19447;BME280;9862;49.462;11.054;2023-06-26T04:54:28;97976.44;;;23.24;100.00
19447;BME280;9862;49.462;11.054;2023-06-26T04:56:54;97967.72;;;23.27;100.00
19447;BME280;9862;49.462;11.054;2023-06-26T04:59:22;97970.66;;;23.31;100.00
19447;BME280;9862;49.462;11.054;2023-06-26T05:01:48;97970.34;;;23.32;100.00
19447;BME280;9862;49.462;11.054;2023-06-26T05:04:15;97970.28;;;23.37;100.00
19447;BME280;9862;49.462;11.054;2023-06-26T05:06:43;97979.53;;;23.36;100.00
19447;BME280;9862;49.462;11.054;2023-06-26T05:09:11;97972.34;;;23.46;100.00
19447;BME280;9862;49.462;11.054;2023-06-26T05:11:39;97978.06;;;23.44;100.00
19447;BME280;9862;49.462;11.054;2023-06-26T05:14:05;97977.78;;;23.46;100.00
19447;BME280;9862;49.462;11.054;2023-06-26T05:16:34;97961.09;;;23.52;100.00
19447;BME280;9862;49.462;11.054;2023-06-26T05:19:01;97963.75;;;23.57;100.00
19447;BME280;9862;49.462;11.054;2023-06-26T05:21:28;97967.22;;;23.63;100.00
19447;BME280;9862;49.462;11.054;2023-06-26T05:23:56;97963.03;;;23.70;100.00
19447;BME280;9862;49.462;11.054;2023-06-26T05:26:26;97957.84;;;23.74;100.00
19447;BME280;9862;49.462;11.054;2023-06-26T05:28:53;97952.22;;;23.84;100.00
19447;BME280;9862;49.462;11.054;2023-06-26T05:31:20;97958.53;;;23.80;100.00
19447;BME280;9862;49.462;11.054;2023-06-26T05:33:49;97960.97;;;23.81;100.00
19447;BME280;9862;49.462;11.054;2023-06-26T05:36:16;97954.78;;;23.94;100.00
19447;BME280;9862;49.462;11.054;2023-06-26T05:38:44;97956.25;;;23.87;100.00
19447;BME280;9862;49.462;11.054;2023-06-26T05:41:11;97955.44;;;23.86;100.00
19447;BME280;9862;49.462;11.054;2023-06-26T05:43:39;97944.59;;;23.86;100.00
19447;BME280;9862;49.462;11.054;2023-06-26T05:46:06;97955.06;;;23.93;100.00
19447;BME280;9862;49.462;11.054;2023-06-26T05:48:33;97949.84;;;23.96;100.00
19447;BME280;9862;49.462;11.054;2023-06-26T05:51:00;97950.28;;;24.04;100.00
19447;BME280;9862;49.462;11.054;2023-06-26T05:53:27;97942.03;;;24.09;100.00
19447;BME280;9862;49.462;11.054;2023-06-26T05:55:55;97947.28;;;24.19;100.00
19447;BME280;9862;49.462;11.054;2023-06-26T05:58:24;97936.81;;;24.26;100.00
19447;BME280;9862;49.462;11.054;2023-06-26T06:00:53;97936.16;;;24.34;100.00
19447;BME280;9862;49.462;11.054;2023-06-26T06:03:20;97935.47;;;24.42;98.02
19447;BME280;9862;49.462;11.054;2023-06-26T06:05:47;97940.31;;;24.45;100.00
19447;BME280;9862;49.462;11.054;2023-06-26T06:08:13;97933.75;;;24.46;100.00
19447;BME280;9862;49.462;11.054;2023-06-26T06:10:40;97937.47;;;24.50;100.00
19447;BME280;9862;49.462;11.054;2023-06-26T06:13:07;97933.66;;;24.51;100.00
19447;BME280;9862;49.462;11.054;2023-06-26T06:15:33;97938.69;;;24.58;100.00
19447;BME280;9862;49.462;11.054;2023-06-26T06:18:01;97930.94;;;24.65;100.00
19447;BME280;9862;49.462;11.054;2023-06-26T06:20:28;97930.72;;;24.75;99.62
19447;BME280;9862;49.462;11.054;2023-06-26T06:22:55;97933.38;;;24.80;100.00
19447;BME280;9862;49.462;11.054;2023-06-26T06:25:21;97931.81;;;24.88;100.00
19447;BME280;9862;49.462;11.054;2023-06-26T06:27:48;97940.91;;;24.97;98.18
19447;BME280;9862;49.462;11.054;2023-06-26T06:30:14;97938.38;;;25.01;97.70
19447;BME280;9862;49.462;11.054;2023-06-26T06:32:41;97936.88;;;25.08;96.99
19447;BME280;9862;49.462;11.054;2023-06-26T06:35:09;97942.22;;;25.14;95.28
19447;BME280;9862;49.462;11.054;2023-06-26T06:37:36;97941.91;;;25.15;95.32
19447;BME280;9862;49.462;11.054;2023-06-26T06:40:04;97930.41;;;25.18;95.22
19447;BME280;9862;49.462;11.054;2023-06-26T06:42:31;97933.66;;;25.20;95.08
19447;BME280;9862;49.462;11.054;2023-06-26T06:44:58;97929.50;;;25.23;95.27
19447;BME280;9862;49.462;11.054;2023-06-26T06:47:25;97925.56;;;25.29;95.46
19447;BME280;9862;49.462;11.054;2023-06-26T06:49:51;97931.19;;;25.32;96.04
19447;BME280;9862;49.462;11.054;2023-06-26T06:52:20;97920.16;;;25.37;95.29
19447;BME280;9862;49.462;11.054;2023-06-26T06:54:54;97920.38;;;25.41;93.99
19447;BME280;9862;49.462;11.054;2023-06-26T06:57:21;97919.88;;;25.39;94.71
19447;BME280;9862;49.462;11.054;2023-06-26T06:59:48;97918.13;;;25.43;95.03
19447;BME280;9862;49.462;11.054;2023-06-26T07:02:15;97928.63;;;25.50;94.69
19447;BME280;9862;49.462;11.054;2023-06-26T07:04:42;97927.69;;;25.54;94.08
19447;BME280;9862;49.462;11.054;2023-06-26T07:07:09;97920.19;;;25.60;93.77
19447;BME280;9862;49.462;11.054;2023-06-26T07:09:37;97919.56;;;25.63;93.21
19447;BME280;9862;49.462;11.054;2023-06-26T07:12:05;97922.59;;;25.61;93.70
19447;BME280;9862;49.462;11.054;2023-06-26T07:14:31;97919.03;;;25.75;91.97
19447;BME280;9862;49.462;11.054;2023-06-26T07:16:58;97920.78;;;25.71;91.37
19447;BME280;9862;49.462;11.054;2023-06-26T07:19:24;97918.53;;;25.73;91.83
19447;BME280;9862;49.462;11.054;2023-06-26T07:21:51;97911.97;;;25.74;91.40
19447;BME280;9862;49.462;11.054;2023-06-26T07:24:18;97913.28;;;25.76;91.34
19447;BME280;9862;49.462;11.054;2023-06-26T07:26:46;97912.72;;;25.88;90.35
19447;BME280;9862;49.462;11.054;2023-06-26T07:29:12;97907.75;;;25.90;89.72
19447;BME280;9862;49.462;11.054;2023-06-26T07:31:39;97911.16;;;25.95;90.27
19447;BME280;9862;49.462;11.054;2023-06-26T07:34:05;97903.66;;;26.01;88.30
19447;BME280;9862;49.462;11.054;2023-06-26T07:36:32;97905.94;;;26.08;88.75
19447;BME280;9862;49.462;11.054;2023-06-26T07:38:59;97901.16;;;26.13;88.34
19447;BME280;9862;49.462;11.054;2023-06-26T07:41:25;97907.59;;;26.17;88.88
19447;BME280;9862;49.462;11.054;2023-06-26T07:43:53;97903.47;;;26.29;87.23
19447;BME280;9862;49.462;11.054;2023-06-26T07:46:20;97904.44;;;26.33;87.04
19447;BME280;9862;49.462;11.054;2023-06-26T07:48:46;97908.06;;;26.42;87.33
19447;BME280;9862;49.462;11.054;2023-06-26T07:51:13;97896.75;;;26.66;85.19
19447;BME280;9862;49.462;11.054;2023-06-26T07:53:40;97901.41;;;26.65;85.42
19447;BME280;9862;49.462;11.054;2023-06-26T07:56:07;97893.06;;;26.70;84.60
19447;BME280;9862;49.462;11.054;2023-06-26T07:58:33;97896.28;;;26.72;85.03
19447;BME280;9862;49.462;11.054;2023-06-26T08:01:01;97895.66;;;26.75;85.18
19447;BME280;9862;49.462;11.054;2023-06-26T08:03:28;97887.50;;;26.93;83.80
19447;BME280;9862;49.462;11.054;2023-06-26T08:05:55;97886.13;;;27.13;82.69
19447;BME280;9862;49.462;11.054;2023-06-26T08:08:21;97891.34;;;27.00;84.76
19447;BME280;9862;49.462;11.054;2023-06-26T08:10:48;97888.00;;;26.95;84.95
19447;BME280;9862;49.462;11.054;2023-06-26T08:13:14;97888.84;;;27.21;81.25
19447;BME280;9862;49.462;11.054;2023-06-26T08:15:41;97887.75;;;27.22;81.66
19447;BME280;9862;49.462;11.054;2023-06-26T08:18:09;97882.59;;;27.12;82.58
19447;BME280;9862;49.462;11.054;2023-06-26T08:20:36;97881.59;;;27.08;84.35
19447;BME280;9862;49.462;11.054;2023-06-26T08:23:04;97888.22;;;27.33;83.17
19447;BME280;9862;49.462;11.054;2023-06-26T08:25:30;97866.50;;;27.36;82.20
19447;BME280;9862;49.462;11.054;2023-06-26T08:27:57;97859.25;;;27.41;82.32
19447;BME280;9862;49.462;11.054;2023-06-26T08:30:24;97866.31;;;27.50;80.91
19447;BME280;9862;49.462;11.054;2023-06-26T08:32:53;97860.56;;;27.43;80.78
19447;BME280;9862;49.462;11.054;2023-06-26T08:35:21;97861.19;;;27.40;82.07
19447;BME280;9862;49.462;11.054;2023-06-26T08:37:48;97857.50;;;27.45;80.79
19447;BME280;9862;49.462;11.054;2023-06-26T08:40:16;97861.66;;;27.68;78.83
19447;BME280;9862;49.462;11.054;2023-06-26T08:42:43;97856.50;;;27.58;80.11
19447;BME280;9862;49.462;11.054;2023-06-26T08:45:10;97856.50;;;27.58;81.88
19447;BME280;9862;49.462;11.054;2023-06-26T08:47:37;97863.44;;;27.55;83.00
19447;BME280;9862;49.462;11.054;2023-06-26T08:50:07;97856.50;;;27.58;82.99
19447;BME280;9862;49.462;11.054;2023-06-26T08:52:41;97854.06;;;27.91;78.44
19447;BME280;9862;49.462;11.054;2023-06-26T08:55:10;97860.47;;;28.04;76.65
19447;BME280;9862;49.462;11.054;2023-06-26T08:57:36;97856.25;;;28.15;77.66
19447;BME280;9862;49.462;11.054;2023-06-26T09:00:04;97854.97;;;28.12;74.86
19447;BME280;9862;49.462;11.054;2023-06-26T09:02:34;97866.28;;;28.49;67.04
19447;BME280;9862;49.462;11.054;2023-06-26T09:05:01;97860.00;;;28.48;65.16
19447;BME280;9862;49.462;11.054;2023-06-26T09:07:28;97860.22;;;28.64;63.67
19447;BME280;9862;49.462;11.054;2023-06-26T09:09:56;97848.50;;;28.55;63.31
19447;BME280;9862;49.462;11.054;2023-06-26T09:12:22;97848.34;;;28.60;63.14
19447;BME280;9862;49.462;11.054;2023-06-26T09:14:50;97850.34;;;28.72;63.49
19447;BME280;9862;49.462;11.054;2023-06-26T09:17:17;97854.19;;;28.79;64.26
19447;BME280;9862;49.462;11.054;2023-06-26T09:19:45;97855.75;;;28.89;62.87
19447;BME280;9862;49.462;11.054;2023-06-26T09:22:14;97847.34;;;28.94;60.13
19447;BME280;9862;49.462;11.054;2023-06-26T09:24:41;97848.41;;;29.02;61.18
19447;BME280;9862;49.462;11.054;2023-06-26T09:27:09;97857.97;;;28.96;61.00
19447;BME280;9862;49.462;11.054;2023-06-26T09:29:36;97858.56;;;29.01;60.80
19447;BME280;9862;49.462;11.054;2023-06-26T09:32:03;97851.78;;;29.07;62.45
19447;BME280;9862;49.462;11.054;2023-06-26T09:34:30;97843.16;;;28.97;63.42
19447;BME280;9862;49.462;11.054;2023-06-26T09:36:58;97840.41;;;29.18;60.84
19447;BME280;9862;49.462;11.054;2023-06-26T09:39:24;97837.38;;;29.11;60.61
19447;BME280;9862;49.462;11.054;2023-06-26T09:41:51;97848.69;;;29.09;62.29
19447;BME280;9862;49.462;11.054;2023-06-26T09:44:22;97849.03;;;29.28;58.33
19447;BME280;9862;49.462;11.054;2023-06-26T09:46:49;97846.16;;;29.25;56.38
19447;BME280;9862;49.462;11.054;2023-06-26T09:49:16;97844.53;;;29.24;55.39
19447;BME280;9862;49.462;11.054;2023-06-26T09:51:42;97846.16;;;29.25;55.40
19447;BME280;9862;49.462;11.054;2023-06-26T09:54:09;97836.63;;;29.22;56.14
19447;BME280;9862;49.462;11.054;2023-06-26T09:56:36;97835.84;;;29.22;57.00
19447;BME280;9862;49.462;11.054;2023-06-26T09:59:04;97836.22;;;29.32;55.54
19447;BME280;9862;49.462;11.054;2023-06-26T10:01:32;97834.56;;;29.40;56.22
19447;BME280;9862;49.462;11.054;2023-06-26T10:03:59;97832.38;;;29.54;55.65
19447;BME280;9862;49.462;11.054;2023-06-26T10:06:27;97823.91;;;29.59;54.85
19447;BME280;9862;49.462;11.054;2023-06-26T10:08:56;97832.28;;;29.63;54.03
19447;BME280;9862;49.462;11.054;2023-06-26T10:11:25;97818.44;;;29.59;53.42
19447;BME280;9862;49.462;11.054;2023-06-26T10:13:55;97826.31;;;29.61;53.86
19447;BME280;9862;49.462;11.054;2023-06-26T10:16:26;97823.28;;;29.75;55.11
19447;BME280;9862;49.462;11.054;2023-06-26T10:19:01;97822.16;;;29.76;54.79
19447;BME280;9862;49.462;11.054;2023-06-26T10:21:29;97822.50;;;29.74;54.65
19447;BME280;9862;49.462;11.054;2023-06-26T10:23:58;97818.44;;;29.72;55.46
19447;BME280;9862;49.462;11.054;2023-06-26T10:26:26;97816.50;;;29.72;55.05
19447;BME280;9862;49.462;11.054;2023-06-26T10:28:54;97812.75;;;29.77;55.69
19447;BME280;9862;49.462;11.054;2023-06-26T10:31:25;97812.31;;;29.75;54.89
19447;BME280;9862;49.462;11.054;2023-06-26T10:33:52;97818.19;;;29.98;51.84
19447;BME280;9862;49.462;11.054;2023-06-26T10:36:29;97816.03;;;30.03;50.88
19447;BME280;9862;49.462;11.054;2023-06-26T10:38:58;97822.44;;;30.07;48.95
19447;BME280;9862;49.462;11.054;2023-06-26T10:41:36;97816.31;;;29.89;49.70
19447;BME280;9862;49.462;11.054;2023-06-26T10:44:08;97822.16;;;30.00;51.24
19447;BME280;9862;49.462;11.054;2023-06-26T10:46:48;97818.91;;;30.07;48.75
19447;BME280;9862;49.462;11.054;2023-06-26T10:49:15;97815.59;;;30.13;48.65
19447;BME280;9862;49.462;11.054;2023-06-26T10:51:47;97808.72;;;30.07;47.04
19447;BME280;9862;49.462;11.054;2023-06-26T10:54:15;97810.13;;;30.13;48.71
19447;BME280;9862;49.462;11.054;2023-06-26T10:56:44;97812.63;;;30.18;48.13
19447;BME280;9862;49.462;11.054;2023-06-26T10:59:13;97816.97;;;30.19;47.43
19447;BME280;9862;49.462;11.054;2023-06-26T11:01:40;97814.22;;;30.19;46.31
19447;BME280;9862;49.462;11.054;2023-06-26T11:04:07;97813.53;;;30.35;46.13
19447;BME280;9862;49.462;11.054;2023-06-26T11:06:37;97809.75;;;30.39;44.94
19447;BME280;9862;49.462;11.054;2023-06-26T11:09:10;97811.50;;;30.32;45.45
19447;BME280;9862;49.462;11.054;2023-06-26T11:11:55;97819.50;;;30.37;46.12
19447;BME280;9862;49.462;11.054;2023-06-26T11:14:25;97828.19;;;30.39;46.38
19447;BME280;9862;49.462;11.054;2023-06-26T11:16:52;97810.69;;;30.31;47.14
19447;BME280;9862;49.462;11.054;2023-06-26T11:19:21;97806.66;;;30.29;47.14
19447;BME280;9862;49.462;11.054;2023-06-26T11:21:48;97808.28;;;30.54;45.13
19447;BME280;9862;49.462;11.054;2023-06-26T11:24:17;97815.59;;;30.62;43.78
19447;BME280;9862;49.462;11.054;2023-06-26T11:26:45;97817.75;;;30.57;43.08
19447;BME280;9862;49.462;11.054;2023-06-26T11:29:12;97796.72;;;30.61;42.71
19447;BME280;9862;49.462;11.054;2023-06-26T11:31:40;97798.53;;;30.57;43.40
19447;BME280;9862;49.462;11.054;2023-06-26T11:34:08;97809.53;;;30.44;44.28
19447;BME280;9862;49.462;11.054;2023-06-26T11:36:37;97807.03;;;30.52;43.40
19447;BME280;9862;49.462;11.054;2023-06-26T11:39:05;97797.66;;;30.65;43.51
19447;BME280;9862;49.462;11.054;2023-06-26T11:41:34;97808.06;;;30.71;43.10
19447;BME280;9862;49.462;11.054;2023-06-26T11:44:02;97807.34;;;30.74;43.08
19447;BME280;9862;49.462;11.054;2023-06-26T11:46:30;97801.63;;;30.67;42.88
19447;BME280;9862;49.462;11.054;2023-06-26T11:48:57;97805.06;;;30.76;43.07
19447;BME280;9862;49.462;11.054;2023-06-26T11:51:26;97797.47;;;30.86;42.63
19447;BME280;9862;49.462;11.054;2023-06-26T11:53:53;97799.19;;;30.90;42.28
19447;BME280;9862;49.462;11.054;2023-06-26T11:56:20;97800.00;;;30.91;42.48
19447;BME280;9862;49.462;11.054;2023-06-26T11:58:59;97786.94;;;30.88;42.34
19447;BME280;9862;49.462;11.054;2023-06-26T12:01:27;97788.22;;;30.78;43.82
19447;BME280;9862;49.462;11.054;2023-06-26T12:03:59;97791.31;;;30.89;43.50
19447;BME280;9862;49.462;11.054;2023-06-26T12:06:27;97795.63;;;31.02;42.40
19447;BME280;9862;49.462;11.054;2023-06-26T12:08:54;97787.81;;;31.04;41.60
19447;BME280;9862;49.462;11.054;2023-06-26T12:11:21;97794.00;;;31.01;41.99
19447;BME280;9862;49.462;11.054;2023-06-26T12:13:49;97790.13;;;31.02;41.64
19447;BME280;9862;49.462;11.054;2023-06-26T12:16:17;97777.03;;;31.11;42.08
19447;BME280;9862;49.462;11.054;2023-06-26T12:18:44;97777.00;;;31.23;42.64
19447;BME280;9862;49.462;11.054;2023-06-26T12:21:44;97774.81;;;31.29;41.50
19447;BME280;9862;49.462;11.054;2023-06-26T12:24:13;97776.09;;;31.47;42.35
19447;BME280;9862;49.462;11.054;2023-06-26T12:26:42;97770.03;;;31.42;41.30
19447;BME280;9862;49.462;11.054;2023-06-26T12:29:10;97777.84;;;31.40;42.10
19447;BME280;9862;49.462;11.054;2023-06-26T12:31:41;97781.75;;;31.39;42.05
19447;BME280;9862;49.462;11.054;2023-06-26T12:34:09;97769.84;;;31.34;41.61
19447;BME280;9862;49.462;11.054;2023-06-26T12:36:39;97781.19;;;31.33;41.95
19447;BME280;9862;49.462;11.054;2023-06-26T12:39:09;97770.75;;;31.39;42.04
19447;BME280;9862;49.462;11.054;2023-06-26T12:41:44;97771.56;;;31.55;42.27
19447;BME280;9862;49.462;11.054;2023-06-26T12:44:17;97769.72;;;31.59;41.44
19447;BME280;9862;49.462;11.054;2023-06-26T12:46:46;97766.25;;;31.62;41.97
19447;BME280;9862;49.462;11.054;2023-06-26T12:49:12;97760.16;;;31.69;42.45
19447;BME280;9862;49.462;11.054;2023-06-26T12:51:39;97759.28;;;31.80;41.83
19447;BME280;9862;49.462;11.054;2023-06-26T12:54:06;97750.84;;;31.89;42.32
19447;BME280;9862;49.462;11.054;2023-06-26T12:56:33;97754.56;;;32.12;41.86
19447;BME280;9862;49.462;11.054;2023-06-26T12:58:59;97763.38;;;32.02;41.68